sensor_id;sensor_type;location;lat;lon;timestamp;P1;durP1;ratioP1;P2;durP2;ratioP2
21501;SDS011;27639;48.674;9.242;2023-05-16T00:00:22;8.57;;;5.47;;
21501;SDS011;27639;48.674;9.242;2023-05-16T00:02:49;5.90;;;5.03;;
21501;SDS011;27639;48.674;9.242;2023-05-16T00:05:15;6.45;;;5.07;;
21501;SDS011;27639;48.674;9.242;2023-05-16T00:07:42;6.20;;;5.30;;
21501;SDS011;27639;48.674;9.242;2023-05-16T00:10:09;7.20;;;4.82;;
21501;SDS011;27639;48.674;9.242;2023-05-16T00:12:35;7.45;;;5.88;;
21501;SDS011;27639;48.674;9.242;2023-05-16T00:15:01;7.82;;;5.35;;
21501;SDS011;27639;48.674;9.242;2023-05-16T00:17:29;8.55;;;6.18;;
21501;SDS011;27639;48.674;9.242;2023-05-16T00:19:54;7.22;;;5.03;;
21501;SDS011;27639;48.674;9.242;2023-05-16T00:22:23;6.88;;;5.65;;
21501;SDS011;27639;48.674;9.242;2023-05-16T00:24:49;6.70;;;5.68;;
21501;SDS011;27639;48.674;9.242;2023-05-16T00:27:15;7.55;;;6.28;;
21501;SDS011;27639;48.674;9.242;2023-05-16T00:29:40;7.07;;;5.80;;
21501;SDS011;27639;48.674;9.242;2023-05-16T00:32:06;8.60;;;5.88;;
21501;SDS011;27639;48.674;9.242;2023-05-16T00:34:32;7.70;;;5.90;;
21501;SDS011;27639;48.674;9.242;2023-05-16T00:36:58;7.28;;;5.75;;
21501;SDS011;27639;48.674;9.242;2023-05-16T00:39:24;8.10;;;6.15;;
21501;SDS011;27639;48.674;9.242;2023-05-16T00:41:50;7.50;;;5.88;;
21501;SDS011;27639;48.674;9.242;2023-05-16T00:44:16;7.22;;;5.70;;
21501;SDS011;27639;48.674;9.242;2023-05-16T00:46:41;6.68;;;5.82;;
21501;SDS011;27639;48.674;9.242;2023-05-16T00:49:07;7.40;;;5.85;;
21501;SDS011;27639;48.674;9.242;2023-05-16T00:51:33;7.40;;;5.22;;
21501;SDS011;27639;48.674;9.242;2023-05-16T00:54:00;7.25;;;5.32;;
21501;SDS011;27639;48.674;9.242;2023-05-16T00:56:26;6.40;;;5.57;;
21501;SDS011;27639;48.674;9.242;2023-05-16T00:58:52;7.30;;;5.60;;
21501;SDS011;27639;48.674;9.242;2023-05-16T01:01:18;6.50;;;5.40;;
21501;SDS011;27639;48.674;9.242;2023-05-16T01:03:46;6.63;;;5.00;;
21501;SDS011;27639;48.674;9.242;2023-05-16T01:06:12;6.68;;;5.60;;
21501;SDS011;27639;48.674;9.242;2023-05-16T01:08:38;6.53;;;5.25;;
21501;SDS011;27639;48.674;9.242;2023-05-16T01:11:11;9.32;;;5.65;;
21501;SDS011;27639;48.674;9.242;2023-05-16T01:16:58;6.95;;;5.97;;
21501;SDS011;27639;48.674;9.242;2023-05-16T01:19:42;7.70;;;6.00;;
21501;SDS011;27639;48.674;9.242;2023-05-16T01:28:00;6.53;;;5.60;;
21501;SDS011;27639;48.674;9.242;2023-05-16T01:30:30;7.95;;;6.40;;
21501;SDS011;27639;48.674;9.242;2023-05-16T01:32:57;7.20;;;6.03;;
21501;SDS011;27639;48.674;9.242;2023-05-16T01:35:23;7.25;;;5.85;;
21501;SDS011;27639;48.674;9.242;2023-05-16T01:40:35;6.80;;;5.68;;
21501;SDS011;27639;48.674;9.242;2023-05-16T01:43:14;8.43;;;6.13;;
21501;SDS011;27639;48.674;9.242;2023-05-16T01:45:50;7.50;;;6.20;;
21501;SDS011;27639;48.674;9.242;2023-05-16T01:48:21;8.75;;;5.88;;
21501;SDS011;27639;48.674;9.242;2023-05-16T01:50:54;7.47;;;5.88;;
21501;SDS011;27639;48.674;9.242;2023-05-16T01:53:24;8.40;;;6.32;;
21501;SDS011;27639;48.674;9.242;2023-05-16T01:55:55;8.02;;;6.22;;
21501;SDS011;27639;48.674;9.242;2023-05-16T01:58:25;9.13;;;6.63;;
21501;SDS011;27639;48.674;9.242;2023-05-16T02:00:53;9.68;;;6.93;;
21501;SDS011;27639;48.674;9.242;2023-05-16T02:03:19;9.52;;;7.70;;
21501;SDS011;27639;48.674;9.242;2023-05-16T02:05:44;9.68;;;8.13;;
21501;SDS011;27639;48.674;9.242;2023-05-16T02:08:10;11.90;;;10.15;;
21501;SDS011;27639;48.674;9.242;2023-05-16T02:10:37;16.10;;;13.27;;
21501;SDS011;27639;48.674;9.242;2023-05-16T02:13:04;20.83;;;16.90;;
21501;SDS011;27639;48.674;9.242;2023-05-16T02:15:29;22.52;;;17.10;;
21501;SDS011;27639;48.674;9.242;2023-05-16T02:17:55;21.80;;;17.48;;
21501;SDS011;27639;48.674;9.242;2023-05-16T02:20:22;23.17;;;17.55;;
21501;SDS011;27639;48.674;9.242;2023-05-16T02:22:48;23.02;;;18.50;;
21501;SDS011;27639;48.674;9.242;2023-05-16T02:25:14;29.38;;;20.98;;
21501;SDS011;27639;48.674;9.242;2023-05-16T02:27:40;28.73;;;20.23;;
21501;SDS011;27639;48.674;9.242;2023-05-16T02:30:07;27.63;;;21.23;;
21501;SDS011;27639;48.674;9.242;2023-05-16T02:32:34;27.30;;;21.30;;
21501;SDS011;27639;48.674;9.242;2023-05-16T02:35:00;29.17;;;21.13;;
21501;SDS011;27639;48.674;9.242;2023-05-16T02:37:25;28.15;;;21.00;;
21501;SDS011;27639;48.674;9.242;2023-05-16T02:39:51;27.67;;;21.30;;
21501;SDS011;27639;48.674;9.242;2023-05-16T02:42:16;28.38;;;21.80;;
21501;SDS011;27639;48.674;9.242;2023-05-16T02:44:42;29.15;;;22.33;;
21501;SDS011;27639;48.674;9.242;2023-05-16T02:47:07;29.52;;;22.60;;
21501;SDS011;27639;48.674;9.242;2023-05-16T02:49:33;29.63;;;22.77;;
21501;SDS011;27639;48.674;9.242;2023-05-16T02:51:58;32.63;;;23.80;;
21501;SDS011;27639;48.674;9.242;2023-05-16T02:54:24;29.63;;;23.05;;
21501;SDS011;27639;48.674;9.242;2023-05-16T02:56:50;28.48;;;21.27;;
21501;SDS011;27639;48.674;9.242;2023-05-16T02:59:15;28.45;;;21.98;;
21501;SDS011;27639;48.674;9.242;2023-05-16T03:01:41;33.35;;;22.90;;
21501;SDS011;27639;48.674;9.242;2023-05-16T03:04:06;30.38;;;23.27;;
21501;SDS011;27639;48.674;9.242;2023-05-16T03:06:32;31.52;;;22.40;;
21501;SDS011;27639;48.674;9.242;2023-05-16T03:08:57;29.95;;;22.30;;
21501;SDS011;27639;48.674;9.242;2023-05-16T03:11:23;28.42;;;22.55;;
21501;SDS011;27639;48.674;9.242;2023-05-16T03:13:49;28.98;;;21.83;;
21501;SDS011;27639;48.674;9.242;2023-05-16T03:16:15;30.67;;;21.42;;
21501;SDS011;27639;48.674;9.242;2023-05-16T03:18:41;31.13;;;22.60;;
21501;SDS011;27639;48.674;9.242;2023-05-16T03:21:07;28.67;;;21.55;;
21501;SDS011;27639;48.674;9.242;2023-05-16T03:23:32;29.83;;;22.08;;
21501;SDS011;27639;48.674;9.242;2023-05-16T03:25:58;29.42;;;23.08;;
21501;SDS011;27639;48.674;9.242;2023-05-16T03:28:24;30.63;;;22.10;;
21501;SDS011;27639;48.674;9.242;2023-05-16T03:30:50;33.17;;;22.85;;
21501;SDS011;27639;48.674;9.242;2023-05-16T03:33:16;30.83;;;22.63;;
21501;SDS011;27639;48.674;9.242;2023-05-16T03:35:43;31.70;;;23.42;;
21501;SDS011;27639;48.674;9.242;2023-05-16T03:38:08;30.50;;;22.20;;
21501;SDS011;27639;48.674;9.242;2023-05-16T03:40:34;32.20;;;23.90;;
21501;SDS011;27639;48.674;9.242;2023-05-16T03:43:00;32.47;;;22.42;;
21501;SDS011;27639;48.674;9.242;2023-05-16T03:45:25;36.13;;;23.17;;
21501;SDS011;27639;48.674;9.242;2023-05-16T03:47:51;35.45;;;24.98;;
21501;SDS011;27639;48.674;9.242;2023-05-16T03:50:17;32.05;;;24.27;;
21501;SDS011;27639;48.674;9.242;2023-05-16T03:52:42;35.08;;;25.60;;
21501;SDS011;27639;48.674;9.242;2023-05-16T03:55:08;35.53;;;26.33;;
21501;SDS011;27639;48.674;9.242;2023-05-16T03:57:36;36.15;;;27.92;;
21501;SDS011;27639;48.674;9.242;2023-05-16T04:00:06;32.15;;;23.67;;
21501;SDS011;27639;48.674;9.242;2023-05-16T04:02:32;30.45;;;22.75;;
21501;SDS011;27639;48.674;9.242;2023-05-16T04:04:58;30.85;;;22.65;;
21501;SDS011;27639;48.674;9.242;2023-05-16T04:07:23;34.30;;;23.25;;
21501;SDS011;27639;48.674;9.242;2023-05-16T04:09:50;31.88;;;23.23;;
21501;SDS011;27639;48.674;9.242;2023-05-16T04:12:15;31.40;;;23.25;;
21501;SDS011;27639;48.674;9.242;2023-05-16T04:14:41;31.75;;;22.73;;
21501;SDS011;27639;48.674;9.242;2023-05-16T04:17:07;32.88;;;23.20;;
21501;SDS011;27639;48.674;9.242;2023-05-16T04:19:32;29.30;;;21.98;;
21501;SDS011;27639;48.674;9.242;2023-05-16T04:21:58;33.97;;;24.27;;
21501;SDS011;27639;48.674;9.242;2023-05-16T04:24:23;33.03;;;22.27;;
21501;SDS011;27639;48.674;9.242;2023-05-16T04:26:52;32.55;;;22.98;;
21501;SDS011;27639;48.674;9.242;2023-05-16T04:29:18;33.17;;;24.33;;
21501;SDS011;27639;48.674;9.242;2023-05-16T04:31:43;32.90;;;23.67;;
21501;SDS011;27639;48.674;9.242;2023-05-16T04:34:09;34.22;;;24.35;;
21501;SDS011;27639;48.674;9.242;2023-05-16T04:36:36;36.05;;;24.33;;
21501;SDS011;27639;48.674;9.242;2023-05-16T04:39:02;31.50;;;23.10;;
21501;SDS011;27639;48.674;9.242;2023-05-16T04:41:28;33.83;;;23.98;;
21501;SDS011;27639;48.674;9.242;2023-05-16T04:43:53;35.78;;;25.40;;
21501;SDS011;27639;48.674;9.242;2023-05-16T04:46:19;34.35;;;25.58;;
21501;SDS011;27639;48.674;9.242;2023-05-16T04:48:45;36.22;;;24.85;;
21501;SDS011;27639;48.674;9.242;2023-05-16T04:51:11;34.63;;;24.13;;
21501;SDS011;27639;48.674;9.242;2023-05-16T04:53:36;35.67;;;25.65;;
21501;SDS011;27639;48.674;9.242;2023-05-16T04:56:02;35.70;;;25.42;;
21501;SDS011;27639;48.674;9.242;2023-05-16T04:58:29;39.08;;;26.65;;
21501;SDS011;27639;48.674;9.242;2023-05-16T05:00:55;36.95;;;25.83;;
21501;SDS011;27639;48.674;9.242;2023-05-16T05:03:21;40.42;;;27.33;;
21501;SDS011;27639;48.674;9.242;2023-05-16T05:05:47;41.08;;;27.38;;
21501;SDS011;27639;48.674;9.242;2023-05-16T05:08:12;38.90;;;26.45;;
21501;SDS011;27639;48.674;9.242;2023-05-16T05:10:38;36.40;;;25.90;;
21501;SDS011;27639;48.674;9.242;2023-05-16T05:13:04;39.33;;;26.58;;
21501;SDS011;27639;48.674;9.242;2023-05-16T05:15:30;38.38;;;27.50;;
21501;SDS011;27639;48.674;9.242;2023-05-16T05:17:56;38.45;;;27.45;;
21501;SDS011;27639;48.674;9.242;2023-05-16T05:20:21;38.88;;;25.67;;
21501;SDS011;27639;48.674;9.242;2023-05-16T05:22:47;36.90;;;25.42;;
21501;SDS011;27639;48.674;9.242;2023-05-16T05:25:13;37.95;;;25.85;;
21501;SDS011;27639;48.674;9.242;2023-05-16T05:27:38;36.58;;;25.65;;
21501;SDS011;27639;48.674;9.242;2023-05-16T05:30:04;36.42;;;24.95;;
21501;SDS011;27639;48.674;9.242;2023-05-16T05:32:30;37.08;;;25.80;;
21501;SDS011;27639;48.674;9.242;2023-05-16T05:34:56;33.03;;;24.55;;
21501;SDS011;27639;48.674;9.242;2023-05-16T05:37:22;35.42;;;24.40;;
21501;SDS011;27639;48.674;9.242;2023-05-16T05:39:48;36.10;;;25.02;;
21501;SDS011;27639;48.674;9.242;2023-05-16T05:42:13;39.20;;;26.27;;
21501;SDS011;27639;48.674;9.242;2023-05-16T05:44:39;37.88;;;25.55;;
21501;SDS011;27639;48.674;9.242;2023-05-16T05:47:05;37.05;;;26.23;;
21501;SDS011;27639;48.674;9.242;2023-05-16T05:49:31;37.50;;;26.83;;
21501;SDS011;27639;48.674;9.242;2023-05-16T05:51:57;37.63;;;25.10;;
21501;SDS011;27639;48.674;9.242;2023-05-16T05:54:23;36.65;;;26.05;;
21501;SDS011;27639;48.674;9.242;2023-05-16T05:56:49;37.30;;;24.10;;
21501;SDS011;27639;48.674;9.242;2023-05-16T05:59:14;37.08;;;25.15;;
21501;SDS011;27639;48.674;9.242;2023-05-16T06:01:40;35.03;;;25.00;;
21501;SDS011;27639;48.674;9.242;2023-05-16T06:04:07;35.15;;;25.48;;
21501;SDS011;27639;48.674;9.242;2023-05-16T06:06:33;36.55;;;24.42;;
21501;SDS011;27639;48.674;9.242;2023-05-16T06:08:58;36.13;;;25.15;;
21501;SDS011;27639;48.674;9.242;2023-05-16T06:11:24;34.97;;;24.13;;
21501;SDS011;27639;48.674;9.242;2023-05-16T06:13:50;35.38;;;24.35;;
21501;SDS011;27639;48.674;9.242;2023-05-16T06:16:16;36.80;;;25.33;;
21501;SDS011;27639;48.674;9.242;2023-05-16T06:18:42;35.72;;;24.08;;
21501;SDS011;27639;48.674;9.242;2023-05-16T06:21:07;32.00;;;23.95;;
21501;SDS011;27639;48.674;9.242;2023-05-16T06:23:33;32.92;;;23.63;;
21501;SDS011;27639;48.674;9.242;2023-05-16T06:25:59;33.00;;;23.48;;
21501;SDS011;27639;48.674;9.242;2023-05-16T06:28:25;35.20;;;24.48;;
21501;SDS011;27639;48.674;9.242;2023-05-16T06:30:51;31.95;;;23.83;;
21501;SDS011;27639;48.674;9.242;2023-05-16T06:33:17;32.75;;;24.00;;
21501;SDS011;27639;48.674;9.242;2023-05-16T06:35:43;33.28;;;24.27;;
21501;SDS011;27639;48.674;9.242;2023-05-16T06:38:09;32.63;;;24.42;;
21501;SDS011;27639;48.674;9.242;2023-05-16T06:40:34;31.38;;;22.75;;
21501;SDS011;27639;48.674;9.242;2023-05-16T06:43:00;30.27;;;22.05;;
21501;SDS011;27639;48.674;9.242;2023-05-16T06:45:26;32.17;;;22.70;;
21501;SDS011;27639;48.674;9.242;2023-05-16T06:47:51;29.85;;;21.88;;
21501;SDS011;27639;48.674;9.242;2023-05-16T06:50:17;27.67;;;21.10;;
21501;SDS011;27639;48.674;9.242;2023-05-16T06:52:42;27.50;;;20.15;;
21501;SDS011;27639;48.674;9.242;2023-05-16T06:55:08;28.52;;;20.20;;
21501;SDS011;27639;48.674;9.242;2023-05-16T06:57:34;30.85;;;21.58;;
21501;SDS011;27639;48.674;9.242;2023-05-16T07:00:00;28.58;;;20.35;;
21501;SDS011;27639;48.674;9.242;2023-05-16T07:02:25;29.05;;;21.08;;
21501;SDS011;27639;48.674;9.242;2023-05-16T07:04:51;26.35;;;20.00;;
21501;SDS011;27639;48.674;9.242;2023-05-16T07:07:17;25.63;;;19.23;;
21501;SDS011;27639;48.674;9.242;2023-05-16T07:09:43;24.90;;;18.75;;
21501;SDS011;27639;48.674;9.242;2023-05-16T07:12:08;28.20;;;20.73;;
21501;SDS011;27639;48.674;9.242;2023-05-16T07:14:34;27.98;;;19.77;;
21501;SDS011;27639;48.674;9.242;2023-05-16T07:17:00;27.58;;;19.55;;
21501;SDS011;27639;48.674;9.242;2023-05-16T07:19:25;25.27;;;19.45;;
21501;SDS011;27639;48.674;9.242;2023-05-16T07:21:51;24.90;;;19.15;;
21501;SDS011;27639;48.674;9.242;2023-05-16T07:24:17;26.10;;;19.30;;
21501;SDS011;27639;48.674;9.242;2023-05-16T07:26:43;25.98;;;18.85;;
21501;SDS011;27639;48.674;9.242;2023-05-16T07:29:09;25.40;;;18.25;;
21501;SDS011;27639;48.674;9.242;2023-05-16T07:31:34;26.83;;;19.17;;
21501;SDS011;27639;48.674;9.242;2023-05-16T07:34:00;22.95;;;18.63;;
21501;SDS011;27639;48.674;9.242;2023-05-16T07:36:26;24.90;;;17.95;;
21501;SDS011;27639;48.674;9.242;2023-05-16T07:38:51;24.95;;;18.65;;
21501;SDS011;27639;48.674;9.242;2023-05-16T07:41:17;24.65;;;18.42;;
21501;SDS011;27639;48.674;9.242;2023-05-16T07:43:42;22.25;;;17.55;;
21501;SDS011;27639;48.674;9.242;2023-05-16T07:46:08;22.85;;;17.17;;
21501;SDS011;27639;48.674;9.242;2023-05-16T07:48:35;23.63;;;17.15;;
21501;SDS011;27639;48.674;9.242;2023-05-16T07:51:01;23.10;;;16.92;;
21501;SDS011;27639;48.674;9.242;2023-05-16T07:53:26;23.20;;;16.90;;
21501;SDS011;27639;48.674;9.242;2023-05-16T07:55:52;22.08;;;17.20;;
21501;SDS011;27639;48.674;9.242;2023-05-16T07:58:17;21.42;;;16.25;;
21501;SDS011;27639;48.674;9.242;2023-05-16T08:00:43;20.50;;;15.07;;
21501;SDS011;27639;48.674;9.242;2023-05-16T08:03:09;17.85;;;14.63;;
21501;SDS011;27639;48.674;9.242;2023-05-16T08:05:35;16.40;;;13.30;;
21501;SDS011;27639;48.674;9.242;2023-05-16T08:08:01;16.58;;;13.05;;
21501;SDS011;27639;48.674;9.242;2023-05-16T08:10:26;14.50;;;11.55;;
21501;SDS011;27639;48.674;9.242;2023-05-16T08:12:52;14.82;;;12.10;;
21501;SDS011;27639;48.674;9.242;2023-05-16T08:15:17;16.00;;;12.52;;
21501;SDS011;27639;48.674;9.242;2023-05-16T08:17:43;13.70;;;11.15;;
21501;SDS011;27639;48.674;9.242;2023-05-16T08:20:09;14.73;;;11.60;;
21501;SDS011;27639;48.674;9.242;2023-05-16T08:22:35;14.18;;;11.57;;
21501;SDS011;27639;48.674;9.242;2023-05-16T08:25:00;11.27;;;9.38;;
21501;SDS011;27639;48.674;9.242;2023-05-16T08:27:27;12.15;;;9.88;;
21501;SDS011;27639;48.674;9.242;2023-05-16T08:29:52;11.52;;;9.63;;
21501;SDS011;27639;48.674;9.242;2023-05-16T08:32:18;11.63;;;9.27;;
21501;SDS011;27639;48.674;9.242;2023-05-16T08:34:44;13.25;;;9.55;;
21501;SDS011;27639;48.674;9.242;2023-05-16T08:37:09;11.73;;;9.95;;
21501;SDS011;27639;48.674;9.242;2023-05-16T08:39:37;13.25;;;10.48;;
21501;SDS011;27639;48.674;9.242;2023-05-16T08:42:03;13.20;;;10.00;;
21501;SDS011;27639;48.674;9.242;2023-05-16T08:44:29;11.77;;;9.70;;
21501;SDS011;27639;48.674;9.242;2023-05-16T08:46:55;12.18;;;9.75;;
21501;SDS011;27639;48.674;9.242;2023-05-16T08:49:22;14.02;;;10.00;;
21501;SDS011;27639;48.674;9.242;2023-05-16T08:51:50;12.80;;;10.02;;
21501;SDS011;27639;48.674;9.242;2023-05-16T08:54:20;12.57;;;10.48;;
21501;SDS011;27639;48.674;9.242;2023-05-16T08:56:46;13.65;;;10.13;;
21501;SDS011;27639;48.674;9.242;2023-05-16T08:59:14;12.57;;;10.20;;
21501;SDS011;27639;48.674;9.242;2023-05-16T09:01:40;13.45;;;10.02;;
21501;SDS011;27639;48.674;9.242;2023-05-16T09:04:06;13.15;;;10.32;;
21501;SDS011;27639;48.674;9.242;2023-05-16T09:06:34;12.60;;;10.20;;
21501;SDS011;27639;48.674;9.242;2023-05-16T09:09:02;14.93;;;11.05;;
21501;SDS011;27639;48.674;9.242;2023-05-16T09:11:29;15.32;;;11.40;;
21501;SDS011;27639;48.674;9.242;2023-05-16T09:13:54;15.05;;;11.85;;
21501;SDS011;27639;48.674;9.242;2023-05-16T09:16:20;13.30;;;11.75;;
21501;SDS011;27639;48.674;9.242;2023-05-16T09:18:51;16.10;;;12.90;;
21501;SDS011;27639;48.674;9.242;2023-05-16T09:21:19;17.83;;;12.73;;
21501;SDS011;27639;48.674;9.242;2023-05-16T09:23:47;14.63;;;11.90;;
21501;SDS011;27639;48.674;9.242;2023-05-16T09:26:13;17.92;;;14.00;;
21501;SDS011;27639;48.674;9.242;2023-05-16T09:28:39;18.17;;;14.77;;
21501;SDS011;27639;48.674;9.242;2023-05-16T09:31:24;18.27;;;14.05;;
21501;SDS011;27639;48.674;9.242;2023-05-16T09:33:51;17.98;;;14.25;;
21501;SDS011;27639;48.674;9.242;2023-05-16T09:36:17;21.45;;;14.70;;
21501;SDS011;27639;48.674;9.242;2023-05-16T09:38:43;18.20;;;13.73;;
21501;SDS011;27639;48.674;9.242;2023-05-16T09:41:09;18.63;;;13.98;;
21501;SDS011;27639;48.674;9.242;2023-05-16T09:43:37;20.77;;;15.50;;
21501;SDS011;27639;48.674;9.242;2023-05-16T09:46:04;20.92;;;15.38;;
21501;SDS011;27639;48.674;9.242;2023-05-16T09:48:30;20.85;;;14.98;;
21501;SDS011;27639;48.674;9.242;2023-05-16T09:50:57;19.20;;;14.63;;
21501;SDS011;27639;48.674;9.242;2023-05-16T09:53:31;20.83;;;15.57;;
21501;SDS011;27639;48.674;9.242;2023-05-16T09:56:01;19.40;;;15.07;;
21501;SDS011;27639;48.674;9.242;2023-05-16T09:58:32;20.33;;;15.60;;
21501;SDS011;27639;48.674;9.242;2023-05-16T10:00:59;20.77;;;15.98;;
21501;SDS011;27639;48.674;9.242;2023-05-16T10:03:25;20.83;;;15.70;;
21501;SDS011;27639;48.674;9.242;2023-05-16T10:05:51;21.00;;;16.15;;
21501;SDS011;27639;48.674;9.242;2023-05-16T10:08:21;21.48;;;15.52;;
21501;SDS011;27639;48.674;9.242;2023-05-16T10:10:51;22.60;;;16.67;;
21501;SDS011;27639;48.674;9.242;2023-05-16T10:13:21;22.15;;;16.20;;
21501;SDS011;27639;48.674;9.242;2023-05-16T10:15:55;23.33;;;16.30;;
21501;SDS011;27639;48.674;9.242;2023-05-16T10:18:23;20.52;;;15.48;;
21501;SDS011;27639;48.674;9.242;2023-05-16T10:20:54;22.20;;;17.63;;
21501;SDS011;27639;48.674;9.242;2023-05-16T10:23:23;22.52;;;16.33;;
21501;SDS011;27639;48.674;9.242;2023-05-16T10:25:50;22.15;;;16.23;;
21501;SDS011;27639;48.674;9.242;2023-05-16T10:28:16;23.77;;;17.60;;
21501;SDS011;27639;48.674;9.242;2023-05-16T10:30:45;22.25;;;16.30;;
21501;SDS011;27639;48.674;9.242;2023-05-16T10:33:15;22.88;;;16.83;;
21501;SDS011;27639;48.674;9.242;2023-05-16T10:35:43;22.98;;;16.77;;
21501;SDS011;27639;48.674;9.242;2023-05-16T10:38:10;21.00;;;16.00;;
21501;SDS011;27639;48.674;9.242;2023-05-16T10:40:39;23.67;;;16.40;;
21501;SDS011;27639;48.674;9.242;2023-05-16T10:43:06;23.35;;;16.77;;
21501;SDS011;27639;48.674;9.242;2023-05-16T10:45:32;24.05;;;17.02;;
21501;SDS011;27639;48.674;9.242;2023-05-16T10:47:59;22.80;;;16.08;;
21501;SDS011;27639;48.674;9.242;2023-05-16T10:50:38;23.42;;;15.27;;
21501;SDS011;27639;48.674;9.242;2023-05-16T10:53:17;21.35;;;15.75;;
21501;SDS011;27639;48.674;9.242;2023-05-16T11:06:23;20.38;;;15.38;;
21501;SDS011;27639;48.674;9.242;2023-05-16T11:11:37;22.00;;;15.35;;
21501;SDS011;27639;48.674;9.242;2023-05-16T11:22:11;21.90;;;14.60;;
21501;SDS011;27639;48.674;9.242;2023-05-16T11:24:49;21.98;;;15.27;;
21501;SDS011;27639;48.674;9.242;2023-05-16T11:27:22;21.10;;;14.52;;
21501;SDS011;27639;48.674;9.242;2023-05-16T11:29:48;23.83;;;15.70;;
21501;SDS011;27639;48.674;9.242;2023-05-16T11:32:17;22.42;;;14.63;;
21501;SDS011;27639;48.674;9.242;2023-05-16T11:34:45;22.30;;;15.65;;
21501;SDS011;27639;48.674;9.242;2023-05-16T11:37:12;21.15;;;15.40;;
21501;SDS011;27639;48.674;9.242;2023-05-16T11:39:39;21.08;;;15.07;;
21501;SDS011;27639;48.674;9.242;2023-05-16T11:42:04;20.92;;;15.43;;
21501;SDS011;27639;48.674;9.242;2023-05-16T11:44:30;20.80;;;14.05;;
21501;SDS011;27639;48.674;9.242;2023-05-16T11:46:56;22.10;;;14.20;;
21501;SDS011;27639;48.674;9.242;2023-05-16T11:49:21;17.67;;;13.13;;
21501;SDS011;27639;48.674;9.242;2023-05-16T11:51:47;17.48;;;12.85;;
21501;SDS011;27639;48.674;9.242;2023-05-16T11:54:13;17.73;;;12.27;;
21501;SDS011;27639;48.674;9.242;2023-05-16T11:56:40;16.83;;;11.82;;
21501;SDS011;27639;48.674;9.242;2023-05-16T11:59:06;16.63;;;10.80;;
21501;SDS011;27639;48.674;9.242;2023-05-16T12:01:33;13.75;;;10.13;;
21501;SDS011;27639;48.674;9.242;2023-05-16T12:03:59;12.73;;;9.45;;
21501;SDS011;27639;48.674;9.242;2023-05-16T12:06:25;12.35;;;9.48;;
21501;SDS011;27639;48.674;9.242;2023-05-16T12:08:53;13.52;;;9.68;;
21501;SDS011;27639;48.674;9.242;2023-05-16T12:11:19;14.48;;;9.93;;
21501;SDS011;27639;48.674;9.242;2023-05-16T12:13:46;12.73;;;8.95;;
21501;SDS011;27639;48.674;9.242;2023-05-16T12:16:12;14.48;;;9.52;;
21501;SDS011;27639;48.674;9.242;2023-05-16T12:18:38;14.18;;;10.10;;
21501;SDS011;27639;48.674;9.242;2023-05-16T12:21:04;14.75;;;10.80;;
21501;SDS011;27639;48.674;9.242;2023-05-16T12:23:31;15.35;;;9.88;;
21501;SDS011;27639;48.674;9.242;2023-05-16T12:25:58;14.07;;;10.55;;
21501;SDS011;27639;48.674;9.242;2023-05-16T12:28:29;14.70;;;10.60;;
21501;SDS011;27639;48.674;9.242;2023-05-16T12:30:57;13.15;;;9.35;;
21501;SDS011;27639;48.674;9.242;2023-05-16T12:33:23;13.07;;;9.50;;
21501;SDS011;27639;48.674;9.242;2023-05-16T12:35:48;11.70;;;9.18;;
21501;SDS011;27639;48.674;9.242;2023-05-16T12:38:16;12.65;;;9.70;;
21501;SDS011;27639;48.674;9.242;2023-05-16T12:40:44;12.82;;;8.75;;
21501;SDS011;27639;48.674;9.242;2023-05-16T12:43:20;11.95;;;8.20;;
21501;SDS011;27639;48.674;9.242;2023-05-16T12:45:50;11.95;;;8.65;;
21501;SDS011;27639;48.674;9.242;2023-05-16T12:48:17;11.10;;;8.27;;
21501;SDS011;27639;48.674;9.242;2023-05-16T12:50:42;11.38;;;8.25;;
21501;SDS011;27639;48.674;9.242;2023-05-16T12:53:14;11.13;;;8.00;;
21501;SDS011;27639;48.674;9.242;2023-05-16T12:55:41;10.88;;;7.53;;
21501;SDS011;27639;48.674;9.242;2023-05-16T12:58:08;10.18;;;6.85;;
21501;SDS011;27639;48.674;9.242;2023-05-16T13:00:34;10.45;;;7.07;;
21501;SDS011;27639;48.674;9.242;2023-05-16T13:03:01;10.73;;;6.88;;
21501;SDS011;27639;48.674;9.242;2023-05-16T13:05:27;9.73;;;7.22;;
21501;SDS011;27639;48.674;9.242;2023-05-16T13:07:53;9.25;;;6.55;;
21501;SDS011;27639;48.674;9.242;2023-05-16T13:10:19;9.32;;;6.65;;
21501;SDS011;27639;48.674;9.242;2023-05-16T13:12:45;9.15;;;6.68;;
21501;SDS011;27639;48.674;9.242;2023-05-16T13:15:11;8.70;;;6.03;;
21501;SDS011;27639;48.674;9.242;2023-05-16T13:17:37;7.45;;;5.55;;
21501;SDS011;27639;48.674;9.242;2023-05-16T13:20:04;8.10;;;5.63;;
21501;SDS011;27639;48.674;9.242;2023-05-16T13:22:37;8.38;;;5.25;;
21501;SDS011;27639;48.674;9.242;2023-05-16T13:25:03;6.47;;;4.57;;
21501;SDS011;27639;48.674;9.242;2023-05-16T13:27:30;8.38;;;5.43;;
21501;SDS011;27639;48.674;9.242;2023-05-16T13:29:56;10.88;;;5.65;;
21501;SDS011;27639;48.674;9.242;2023-05-16T13:32:22;8.80;;;5.70;;
21501;SDS011;27639;48.674;9.242;2023-05-16T13:34:49;6.53;;;5.07;;
21501;SDS011;27639;48.674;9.242;2023-05-16T13:37:14;6.15;;;4.90;;
21501;SDS011;27639;48.674;9.242;2023-05-16T13:39:40;7.78;;;5.18;;
21501;SDS011;27639;48.674;9.242;2023-05-16T13:42:06;6.03;;;4.80;;
21501;SDS011;27639;48.674;9.242;2023-05-16T13:44:32;5.20;;;3.85;;
21501;SDS011;27639;48.674;9.242;2023-05-16T13:46:57;5.93;;;4.30;;
21501;SDS011;27639;48.674;9.242;2023-05-16T13:49:23;5.60;;;4.35;;
21501;SDS011;27639;48.674;9.242;2023-05-16T13:51:49;5.60;;;3.85;;
21501;SDS011;27639;48.674;9.242;2023-05-16T13:54:15;6.10;;;4.03;;
21501;SDS011;27639;48.674;9.242;2023-05-16T13:56:42;5.38;;;3.90;;
21501;SDS011;27639;48.674;9.242;2023-05-16T13:59:08;6.68;;;3.70;;
21501;SDS011;27639;48.674;9.242;2023-05-16T14:01:34;5.43;;;3.67;;
21501;SDS011;27639;48.674;9.242;2023-05-16T14:04:00;5.70;;;3.30;;
21501;SDS011;27639;48.674;9.242;2023-05-16T14:06:26;4.38;;;3.00;;
21501;SDS011;27639;48.674;9.242;2023-05-16T14:08:52;4.63;;;3.10;;
21501;SDS011;27639;48.674;9.242;2023-05-16T14:11:17;4.43;;;3.25;;
21501;SDS011;27639;48.674;9.242;2023-05-16T14:13:44;4.38;;;3.20;;
21501;SDS011;27639;48.674;9.242;2023-05-16T14:16:10;4.95;;;3.47;;
21501;SDS011;27639;48.674;9.242;2023-05-16T14:18:35;5.22;;;3.33;;
21501;SDS011;27639;48.674;9.242;2023-05-16T14:21:01;6.05;;;3.53;;
21501;SDS011;27639;48.674;9.242;2023-05-16T14:23:26;5.30;;;3.45;;
21501;SDS011;27639;48.674;9.242;2023-05-16T14:25:52;5.88;;;3.55;;
21501;SDS011;27639;48.674;9.242;2023-05-16T14:28:18;6.10;;;3.67;;
21501;SDS011;27639;48.674;9.242;2023-05-16T14:30:43;4.70;;;3.78;;
21501;SDS011;27639;48.674;9.242;2023-05-16T14:33:09;4.45;;;3.22;;
21501;SDS011;27639;48.674;9.242;2023-05-16T14:35:35;5.40;;;3.42;;
21501;SDS011;27639;48.674;9.242;2023-05-16T14:38:02;6.32;;;3.70;;
21501;SDS011;27639;48.674;9.242;2023-05-16T14:40:28;6.20;;;4.10;;
21501;SDS011;27639;48.674;9.242;2023-05-16T14:42:53;5.43;;;3.72;;
21501;SDS011;27639;48.674;9.242;2023-05-16T14:45:19;5.13;;;3.83;;
21501;SDS011;27639;48.674;9.242;2023-05-16T14:47:45;5.38;;;3.85;;
21501;SDS011;27639;48.674;9.242;2023-05-16T14:50:12;6.57;;;3.90;;
21501;SDS011;27639;48.674;9.242;2023-05-16T14:52:38;6.28;;;3.65;;
21501;SDS011;27639;48.674;9.242;2023-05-16T14:55:04;5.32;;;3.83;;
21501;SDS011;27639;48.674;9.242;2023-05-16T14:57:30;5.80;;;4.20;;